Time;durP1;ratioP1;P1;durP2;ratioP2;P2;SDS_P1;SDS_P2;PMS_P1;PMS_P2;Temp;Humidity;BMP_temperature;BMP_pressure;BME280_temperature;BME280_humidity;BME280_pressure;Samples;Min_cycle;Max_cycle;Signal;HPM_P1;HPM_P2
2023/12/13 00:02:11;;;;;;;0.00;0.00;;;8.60;93.80;;;;;;5101284;28;20093;-70
2023/12/13 00:04:37;;;;;;;0.00;0.00;;;8.60;93.80;;;;;;5106962;28;20044;-70
2023/12/13 00:07:03;;;;;;;0.00;0.00;;;8.60;93.80;;;;;;5107200;28;20062;-70
2023/12/13 00:09:28;;;;;;;0.00;0.00;;;8.60;93.80;;;;;;5089077;28;20709;-70
2023/12/13 00:11:54;;;;;;;0.00;0.00;;;8.60;93.80;;;;;;5107223;28;20055;-70
2023/12/13 00:14:21;;;;;;;0.00;0.00;;;8.60;93.80;;;;;;5106409;28;20047;-70
2023/12/13 00:16:46;;;;;;;0.00;0.00;;;8.60;93.80;;;;;;5106957;28;20055;-70
2023/12/13 00:19:12;;;;;;;0.00;0.00;;;8.60;93.80;;;;;;5106645;28;20047;-70
2023/12/13 00:21:37;;;;;;;0.05;0.05;;;8.60;93.80;;;;;;5107722;28;20035;-70
2023/12/13 00:24:04;;;;;;;0.00;0.00;;;8.60;93.80;;;;;;5110485;28;20039;-70
2023/12/13 00:26:30;;;;;;;0.20;0.20;;;8.60;93.80;;;;;;5110420;28;20063;-70
2023/12/13 00:28:55;;;;;;;1.02;1.00;;;8.60;93.70;;;;;;5092231;28;20051;-70
2023/12/13 00:31:21;;;;;;;0.00;0.00;;;8.60;93.70;;;;;;5110531;28;20046;-70
2023/12/13 00:33:47;;;;;;;0.00;0.00;;;8.60;93.70;;;;;;5110537;28;20442;-70
2023/12/13 00:36:12;;;;;;;0.25;0.25;;;8.60;93.70;;;;;;5110530;28;20595;-70
2023/12/13 00:38:38;;;;;;;0.00;0.00;;;8.60;93.70;;;;;;5109810;28;20035;-71
2023/12/13 00:41:04;;;;;;;0.00;0.00;;;8.50;93.70;;;;;;5091996;28;20086;-71
2023/12/13 00:43:30;;;;;;;0.10;0.10;;;8.50;93.70;;;;;;5091754;28;20050;-71
2023/12/13 00:45:56;;;;;;;0.00;0.00;;;8.50;93.70;;;;;;5092217;28;20444;-71
2023/12/13 00:48:21;;;;;;;0.03;0.03;;;8.60;93.70;;;;;;5110052;28;20039;-71
2023/12/13 00:50:47;;;;;;;0.00;0.00;;;8.60;93.70;;;;;;5093444;28;20528;-71
2023/12/13 00:53:12;;;;;;;0.00;0.00;;;8.50;93.70;;;;;;5054757;28;20135;-71
2023/12/13 00:55:38;;;;;;;0.08;0.08;;;8.60;93.70;;;;;;5071245;28;20083;-70
2023/12/13 00:58:04;;;;;;;0.00;0.00;;;8.50;93.60;;;;;;5070991;28;20039;-70
2023/12/13 01:00:30;;;;;;;0.00;0.00;;;8.50;93.60;;;;;;5089198;28;20131;-70
2023/12/13 01:02:56;;;;;;;0.08;0.08;;;8.60;93.60;;;;;;5071283;28;20108;-70
2023/12/13 01:05:21;;;;;;;0.10;0.10;;;8.60;93.60;;;;;;5089090;28;20138;-70
2023/12/13 01:07:47;;;;;;;0.00;0.00;;;8.60;93.70;;;;;;5089390;28;20063;-71
2023/12/13 01:10:13;;;;;;;0.10;0.10;;;8.60;93.60;;;;;;5071255;28;20040;-71
2023/12/13 01:12:42;;;;;;;0.05;0.05;;;8.50;93.60;;;;;;5089087;28;20043;-71
2023/12/13 01:15:10;;;;;;;0.00;0.00;;;8.50;93.60;;;;;;5089167;28;20048;-71
2023/12/13 01:17:35;;;;;;;0.00;0.00;;;8.50;93.60;;;;;;5089186;28;20056;-71
2023/12/13 01:20:01;;;;;;;0.00;0.00;;;8.50;93.60;;;;;;5088558;28;20040;-71
2023/12/13 01:22:27;;;;;;;0.00;0.00;;;8.60;93.60;;;;;;5089080;28;20047;-70
2023/12/13 01:24:53;;;;;;;0.20;0.20;;;8.50;93.50;;;;;;5088571;28;20406;-70
2023/12/13 01:27:18;;;;;;;0.00;0.00;;;8.50;93.50;;;;;;5088841;28;20137;-71
2023/12/13 01:29:44;;;;;;;0.00;0.00;;;8.50;93.60;;;;;;5088645;28;20409;-70
2023/12/13 01:32:10;;;;;;;0.00;0.00;;;8.50;93.60;;;;;;5088775;28;20044;-70
2023/12/13 01:34:35;;;;;;;0.00;0.00;;;8.60;93.60;;;;;;5070256;28;20051;-70
2023/12/13 01:37:02;;;;;;;0.00;0.00;;;8.50;93.60;;;;;;5088535;28;20048;-70
2023/12/13 01:39:27;;;;;;;0.05;0.05;;;8.50;93.60;;;;;;5088721;28;20047;-70
2023/12/13 01:41:53;;;;;;;0.00;0.00;;;8.50;93.60;;;;;;5088631;28;20487;-70
2023/12/13 01:44:19;;;;;;;0.00;0.00;;;8.60;93.60;;;;;;5088522;28;20512;-70
2023/12/13 01:46:46;;;;;;;0.38;0.38;;;8.60;93.60;;;;;;5087889;28;20044;-70
2023/12/13 01:49:13;;;;;;;0.00;0.00;;;8.60;93.60;;;;;;5088302;28;20056;-70
2023/12/13 01:51:39;;;;;;;0.08;0.08;;;8.60;93.60;;;;;;5088334;28;20093;-70
2023/12/13 01:54:09;;;;;;;0.10;0.10;;;8.60;93.60;;;;;;5087890;28;20098;-70
2023/12/13 01:56:38;;;;;;;0.10;0.10;;;8.60;93.50;;;;;;5070426;28;20081;-71
2023/12/13 01:59:04;;;;;;;0.00;0.00;;;8.60;93.50;;;;;;5087565;28;20474;-71
2023/12/13 02:01:30;;;;;;;0.00;0.00;;;8.60;93.50;;;;;;5086461;28;20043;-71
2023/12/13 02:03:56;;;;;;;0.00;0.00;;;8.60;93.50;;;;;;5087939;28;20040;-71
2023/12/13 02:06:22;;;;;;;0.00;0.00;;;8.60;93.50;;;;;;5088079;28;20051;-70
2023/12/13 02:08:47;;;;;;;0.00;0.00;;;8.60;93.50;;;;;;5087757;28;20493;-70
2023/12/13 02:11:13;;;;;;;0.00;0.00;;;8.60;93.40;;;;;;5088309;28;20089;-71
2023/12/13 02:13:39;;;;;;;0.00;0.00;;;8.60;93.40;;;;;;5087929;28;20845;-70
2023/12/13 02:16:05;;;;;;;0.17;0.17;;;8.60;93.40;;;;;;5088222;28;20052;-71
2023/12/13 02:18:31;;;;;;;0.00;0.00;;;8.60;93.40;;;;;;5087746;28;20163;-70
2023/12/13 02:20:57;;;;;;;0.00;0.00;;;8.60;93.40;;;;;;5087714;28;20122;-70
2023/12/13 02:23:22;;;;;;;0.10;0.10;;;8.60;93.30;;;;;;5087873;28;20432;-71
2023/12/13 02:26:05;;;;;;;0.00;0.00;;;8.60;93.40;;;;;;5087738;28;20068;-70
2023/12/13 02:28:31;;;;;;;0.00;0.00;;;8.60;93.40;;;;;;5087321;28;20509;-70
2023/12/13 02:30:58;;;;;;;0.00;0.00;;;8.60;93.40;;;;;;5087495;28;20095;-70
2023/12/13 02:33:29;;;;;;;0.00;0.00;;;8.60;93.40;;;;;;5087198;28;20044;-71
2023/12/13 02:35:56;;;;;;;0.00;0.00;;;8.60;93.40;;;;;;5087289;28;20051;-71
2023/12/13 02:38:22;;;;;;;0.30;0.30;;;8.60;93.40;;;;;;5086593;28;20040;-71
2023/12/13 02:40:48;;;;;;;0.00;0.00;;;8.50;93.40;;;;;;5087134;28;20101;-71
2023/12/13 02:43:13;;;;;;;0.00;0.00;;;8.50;93.40;;;;;;5086820;28;20036;-71
2023/12/13 02:45:39;;;;;;;0.08;0.08;;;8.60;93.50;;;;;;5086541;28;20036;-70
2023/12/13 02:48:05;;;;;;;0.45;0.45;;;8.50;93.40;;;;;;5087409;28;20075;-71
2023/12/13 02:50:31;;;;;;;0.00;0.00;;;8.50;93.40;;;;;;5087036;28;20032;-71
2023/12/13 02:52:56;;;;;;;0.03;0.03;;;8.60;93.40;;;;;;5087002;28;20165;-71
2023/12/13 02:55:22;;;;;;;0.00;0.00;;;8.60;93.50;;;;;;5068717;28;20134;-71
2023/12/13 02:57:48;;;;;;;0.15;0.15;;;8.50;93.40;;;;;;5087460;28;20482;-71
2023/12/13 03:00:13;;;;;;;0.10;0.10;;;8.50;93.40;;;;;;5086857;28;20040;-71
2023/12/13 03:02:42;;;;;;;0.00;0.00;;;8.50;93.50;;;;;;5086988;28;20070;-71
2023/12/13 03:05:07;;;;;;;0.00;0.00;;;8.60;93.40;;;;;;5068592;28;20482;-70
2023/12/13 03:07:33;;;;;;;0.05;0.05;;;8.50;93.40;;;;;;5069160;28;20127;-70
2023/12/13 03:09:59;;;;;;;0.08;0.08;;;8.50;93.40;;;;;;5068721;28;20139;-70
2023/12/13 03:12:24;;;;;;;0.10;0.10;;;8.60;93.40;;;;;;5068723;28;20087;-70
2023/12/13 03:14:50;;;;;;;0.00;0.00;;;8.60;93.40;;;;;;5086203;28;20486;-71
2023/12/13 03:17:16;;;;;;;0.00;0.00;;;8.60;93.30;;;;;;5087258;28;20059;-70
2023/12/13 03:19:41;;;;;;;0.00;0.00;;;8.60;93.30;;;;;;5086621;28;20048;-70
2023/12/13 03:22:07;;;;;;;0.00;0.00;;;8.60;93.40;;;;;;5086494;28;20524;-70
2023/12/13 03:24:33;;;;;;;0.00;0.00;;;8.60;93.30;;;;;;5086161;28;20079;-70
2023/12/13 03:26:59;;;;;;;0.00;0.00;;;8.60;93.30;;;;;;5068482;28;20109;-70
2023/12/13 03:29:24;;;;;;;0.00;0.00;;;8.60;93.30;;;;;;5086602;28;20839;-70
2023/12/13 03:31:50;;;;;;;0.00;0.00;;;8.60;93.30;;;;;;5086237;28;20036;-70
2023/12/13 03:34:16;;;;;;;0.00;0.00;;;8.60;93.30;;;;;;5086355;28;20044;-70
2023/12/13 03:36:41;;;;;;;0.00;0.00;;;8.60;93.30;;;;;;5085968;28;20040;-71
2023/12/13 03:39:10;;;;;;;0.00;0.00;;;8.60;93.30;;;;;;5085674;28;20067;-70
2023/12/13 03:41:35;;;;;;;0.00;0.00;;;8.60;93.30;;;;;;5086257;28;20093;-70
2023/12/13 03:44:01;;;;;;;0.10;0.10;;;8.60;93.20;;;;;;5086558;28;20040;-70
2023/12/13 03:46:27;;;;;;;0.00;0.00;;;8.60;93.20;;;;;;5085948;28;20140;-71
2023/12/13 03:48:53;;;;;;;0.00;0.00;;;8.60;93.20;;;;;;5086571;28;20121;-70
2023/12/13 03:51:20;;;;;;;0.00;0.00;;;8.60;93.20;;;;;;5085533;28;20040;-70
2023/12/13 03:53:45;;;;;;;0.00;0.00;;;8.60;93.20;;;;;;5057226;28;20635;-70
2023/12/13 03:56:11;;;;;;;0.00;0.00;;;8.60;93.20;;;;;;5086676;28;20043;-70
2023/12/13 03:58:37;;;;;;;0.00;0.00;;;8.60;93.20;;;;;;5089734;28;20578;-70
2023/12/13 04:01:03;;;;;;;0.10;0.10;;;8.60;93.10;;;;;;5072508;28;20052;-70
2023/12/13 04:03:28;;;;;;;0.00;0.00;;;8.60;93.10;;;;;;5090422;28;20114;-70
2023/12/13 04:05:54;;;;;;;0.00;0.00;;;8.60;93.20;;;;;;5072198;28;20036;-70
2023/12/13 04:08:19;;;;;;;0.00;0.00;;;8.60;93.00;;;;;;5090426;28;20486;-70
2023/12/13 04:10:45;;;;;;;0.10;0.10;;;8.60;93.10;;;;;;5072200;28;20044;-70
2023/12/13 04:13:11;;;;;;;0.00;0.00;;;8.60;93.10;;;;;;5090666;28;20044;-70
2023/12/13 04:15:36;;;;;;;0.00;0.00;;;8.50;93.00;;;;;;5090129;28;20051;-70
2023/12/13 04:18:02;;;;;;;0.10;0.10;;;8.50;93.00;;;;;;5090277;28;20048;-70
2023/12/13 04:20:27;;;;;;;0.00;0.00;;;8.60;93.10;;;;;;5089822;28;20077;-70
2023/12/13 04:22:53;;;;;;;0.00;0.00;;;8.60;93.10;;;;;;5072243;28;20044;-70
2023/12/13 04:25:19;;;;;;;0.00;0.00;;;8.60;93.10;;;;;;5089980;28;20066;-70
2023/12/13 04:27:47;;;;;;;0.00;0.00;;;8.50;93.10;;;;;;5089865;28;20062;-70
2023/12/13 04:30:13;;;;;;;0.00;0.00;;;8.50;93.10;;;;;;5071810;28;20047;-70
2023/12/13 04:32:39;;;;;;;0.10;0.10;;;8.50;93.10;;;;;;5072135;28;20441;-70
2023/12/13 04:35:05;;;;;;;0.00;0.00;;;8.50;93.10;;;;;;5090027;28;20048;-70
2023/12/13 04:37:32;;;;;;;0.00;0.00;;;8.50;93.00;;;;;;5089999;28;20048;-70
2023/12/13 04:39:58;;;;;;;0.00;0.00;;;8.50;93.10;;;;;;5090179;28;20156;-71
2023/12/13 04:42:24;;;;;;;0.00;0.00;;;8.50;93.10;;;;;;5089676;28;20091;-70
2023/12/13 04:44:50;;;;;;;0.00;0.00;;;8.40;93.00;;;;;;5071823;28;20652;-70
2023/12/13 04:47:16;;;;;;;0.10;0.10;;;8.40;93.10;;;;;;5089457;28;20051;-70
2023/12/13 04:49:41;;;;;;;0.00;0.00;;;8.40;93.00;;;;;;5089697;28;20044;-70
2023/12/13 04:52:07;;;;;;;0.08;0.08;;;8.50;93.00;;;;;;5089244;28;20036;-70
2023/12/13 04:54:32;;;;;;;0.22;0.22;;;8.50;93.10;;;;;;5088784;28;20044;-70
2023/12/13 04:56:58;;;;;;;0.00;0.00;;;8.40;93.00;;;;;;5071241;28;20044;-71
2023/12/13 04:59:24;;;;;;;0.00;0.00;;;8.40;93.00;;;;;;5089625;28;20048;-71
2023/12/13 05:01:50;;;;;;;0.00;0.00;;;8.50;93.10;;;;;;5089498;28;20906;-70
2023/12/13 05:04:15;;;;;;;0.00;0.00;;;8.40;93.10;;;;;;5089101;28;20127;-70
2023/12/13 05:06:41;;;;;;;0.50;0.50;;;8.40;93.00;;;;;;5089323;28;20048;-70
2023/12/13 05:09:07;;;;;;;0.00;0.00;;;8.40;93.00;;;;;;5088532;28;20101;-70
2023/12/13 05:11:33;;;;;;;0.00;0.00;;;8.40;92.90;;;;;;5088885;28;20119;-70
2023/12/13 05:13:58;;;;;;;0.00;0.00;;;8.40;93.00;;;;;;5089145;28;20480;-70
2023/12/13 05:16:24;;;;;;;0.00;0.00;;;8.50;93.00;;;;;;5088488;28;20039;-70
2023/12/13 05:18:50;;;;;;;0.03;0.03;;;8.40;92.90;;;;;;5089302;28;20532;-70
2023/12/13 05:21:15;;;;;;;0.00;0.00;;;8.40;92.90;;;;;;5089477;28;20162;-70
2023/12/13 05:23:41;;;;;;;0.00;0.00;;;8.40;93.00;;;;;;5088838;28;20406;-70
2023/12/13 05:26:06;;;;;;;0.00;0.00;;;8.40;93.00;;;;;;5088418;28;20136;-70
2023/12/13 05:28:32;;;;;;;0.00;0.00;;;8.40;92.90;;;;;;5088361;28;20556;-70
2023/12/13 05:30:58;;;;;;;0.00;0.00;;;8.40;92.90;;;;;;5089089;28;20044;-70
2023/12/13 05:33:24;;;;;;;0.00;0.00;;;8.50;93.00;;;;;;5088518;28;20036;-70
2023/12/13 05:35:49;;;;;;;0.00;0.00;;;8.40;93.00;;;;;;5070249;28;20055;-70
2023/12/13 05:38:15;;;;;;;0.00;0.00;;;8.50;92.90;;;;;;5088174;28;20051;-70
2023/12/13 05:40:40;;;;;;;0.00;0.00;;;8.40;92.90;;;;;;5088409;28;20494;-70
2023/12/13 05:43:06;;;;;;;0.00;0.00;;;8.40;92.90;;;;;;5088277;28;20047;-71
2023/12/13 05:45:31;;;;;;;0.00;0.00;;;8.40;92.80;;;;;;5088021;28;20260;-70
2023/12/13 05:47:58;;;;;;;0.00;0.00;;;8.40;92.90;;;;;;5088327;28;20051;-70
2023/12/13 05:50:24;;;;;;;0.00;0.00;;;8.40;92.80;;;;;;5088164;28;20058;-70
2023/12/13 05:52:49;;;;;;;0.00;0.00;;;8.40;92.90;;;;;;5088424;28;20130;-70
2023/12/13 05:55:15;;;;;;;0.00;0.00;;;8.40;93.00;;;;;;5088205;28;20131;-71
2023/12/13 05:57:41;;;;;;;0.00;0.00;;;8.40;93.00;;;;;;5087938;28;20197;-70
2023/12/13 06:00:08;;;;;;;0.00;0.00;;;8.40;92.90;;;;;;5087770;28;20545;-70
2023/12/13 06:02:37;;;;;;;0.00;0.00;;;8.50;93.00;;;;;;5088229;28;20044;-70
2023/12/13 06:05:03;;;;;;;0.00;0.00;;;8.40;92.90;;;;;;5087914;28;20068;-70
2023/12/13 06:07:30;;;;;;;0.00;0.00;;;8.50;93.00;;;;;;5088093;28;20048;-70
2023/12/13 06:09:55;;;;;;;0.00;0.00;;;8.50;93.00;;;;;;5087942;28;20040;-71
2023/12/13 06:12:21;;;;;;;0.00;0.00;;;8.50;93.00;;;;;;5088125;28;20047;-71
2023/12/13 06:14:46;;;;;;;0.00;0.00;;;8.50;92.90;;;;;;5087949;28;20889;-71
2023/12/13 06:17:13;;;;;;;0.10;0.10;;;8.50;92.90;;;;;;5103295;28;20421;-71
2023/12/13 06:19:39;;;;;;;0.00;0.00;;;8.50;93.00;;;;;;5087550;28;20171;-71
2023/12/13 06:22:07;;;;;;;0.00;0.00;;;8.50;92.90;;;;;;5069757;28;20567;-71
2023/12/13 06:24:33;;;;;;;0.00;0.00;;;8.50;93.00;;;;;;5087065;28;20056;-71
2023/12/13 06:26:58;;;;;;;0.00;0.00;;;8.50;93.00;;;;;;5067770;28;20052;-71
2023/12/13 06:29:24;;;;;;;0.00;0.00;;;8.50;93.00;;;;;;5087740;28;20059;-71
2023/12/13 06:31:49;;;;;;;0.00;0.00;;;8.50;93.00;;;;;;5087319;28;20131;-71
2023/12/13 06:34:15;;;;;;;0.00;0.00;;;8.50;92.90;;;;;;5087731;28;20846;-71
2023/12/13 06:36:41;;;;;;;0.00;0.00;;;8.50;92.90;;;;;;5087834;28;20123;-71
2023/12/13 06:39:11;;;;;;;0.15;0.15;;;8.50;92.90;;;;;;5086735;28;20101;-72
2023/12/13 06:41:37;;;;;;;0.00;0.00;;;8.60;92.90;;;;;;5069590;28;20047;-71
2023/12/13 06:44:03;;;;;;;0.05;0.05;;;8.60;92.90;;;;;;5087669;28;20051;-71
2023/12/13 06:46:29;;;;;;;0.00;0.00;;;8.50;92.90;;;;;;5087114;28;20048;-71
2023/12/13 06:48:55;;;;;;;0.00;0.00;;;8.60;92.90;;;;;;5086665;28;20052;-71
2023/12/13 06:51:21;;;;;;;0.52;0.52;;;8.60;92.90;;;;;;5069230;28;20070;-71
2023/12/13 06:53:46;;;;;;;0.00;0.00;;;8.50;92.90;;;;;;5069445;28;20043;-71
2023/12/13 06:56:12;;;;;;;0.00;0.00;;;8.60;92.80;;;;;;5087506;28;20044;-71
2023/12/13 06:58:38;;;;;;;0.03;0.03;;;8.60;92.80;;;;;;5086502;28;20426;-71
2023/12/13 07:01:04;;;;;;;0.00;0.00;;;8.60;92.80;;;;;;5086889;28;20044;-71
2023/12/13 07:03:30;;;;;;;0.00;0.00;;;8.60;92.80;;;;;;5087100;28;20052;-71
2023/12/13 07:05:56;;;;;;;0.00;0.00;;;8.60;92.80;;;;;;5087501;28;20044;-71
2023/12/13 07:08:21;;;;;;;0.00;0.00;;;8.60;92.80;;;;;;5086356;28;20068;-71
2023/12/13 07:10:47;;;;;;;0.00;0.00;;;8.60;92.80;;;;;;5086661;28;20044;-71
2023/12/13 07:13:13;;;;;;;0.10;0.10;;;8.60;92.80;;;;;;5087005;28;20089;-71
2023/12/13 07:15:38;;;;;;;0.10;0.10;;;8.60;92.80;;;;;;5086927;28;20413;-71
2023/12/13 07:18:04;;;;;;;0.05;0.05;;;8.60;92.80;;;;;;5086290;28;20040;-71
2023/12/13 07:20:30;;;;;;;0.00;0.00;;;8.60;92.80;;;;;;5086258;28;20067;-71
2023/12/13 07:22:57;;;;;;;0.10;0.10;;;8.50;92.70;;;;;;5100952;28;20102;-72
2023/12/13 07:25:22;;;;;;;0.00;0.00;;;8.50;92.70;;;;;;5102008;28;20059;-72
2023/12/13 07:27:48;;;;;;;0.10;0.10;;;8.60;92.70;;;;;;5068342;28;20036;-72
2023/12/13 07:30:14;;;;;;;0.10;0.10;;;8.60;92.80;;;;;;5068618;28;20447;-72
2023/12/13 07:32:43;;;;;;;0.00;0.00;;;8.50;92.60;;;;;;5090134;28;20050;-72
2023/12/13 07:35:10;;;;;;;0.00;0.00;;;8.50;92.70;;;;;;5106562;28;20048;-71
2023/12/13 07:37:36;;;;;;;0.03;0.03;;;8.50;92.60;;;;;;5072846;28;20083;-72
2023/12/13 07:40:03;;;;;;;0.10;0.10;;;8.50;92.70;;;;;;5089731;28;20093;-72
2023/12/13 07:42:31;;;;;;;0.10;0.10;;;8.50;92.70;;;;;;5090507;28;20056;-72
2023/12/13 07:44:57;;;;;;;0.10;0.10;;;8.50;92.70;;;;;;5089894;28;20564;-71
2023/12/13 07:47:23;;;;;;;0.17;0.17;;;8.40;92.70;;;;;;5105864;28;20052;-71
2023/12/13 07:49:49;;;;;;;0.20;0.20;;;8.40;92.70;;;;;;5090323;28;20139;-70
2023/12/13 07:52:15;;;;;;;0.00;0.00;;;8.50;92.70;;;;;;5090223;28;20040;-72
2023/12/13 07:54:40;;;;;;;0.13;0.13;;;8.40;92.60;;;;;;5088629;28;20040;-71
2023/12/13 07:57:06;;;;;;;0.00;0.00;;;8.50;92.70;;;;;;5071359;28;20091;-71
2023/12/13 07:59:31;;;;;;;0.10;0.10;;;8.40;92.70;;;;;;5089446;28;20044;-71
2023/12/13 08:01:57;;;;;;;0.00;0.00;;;8.40;92.70;;;;;;5088188;28;20118;-71
2023/12/13 08:04:22;;;;;;;0.00;0.00;;;8.40;92.70;;;;;;5089582;28;20049;-71
2023/12/13 08:06:48;;;;;;;0.00;0.00;;;8.40;92.70;;;;;;5052652;28;20432;-71
2023/12/13 08:09:15;;;;;;;0.10;0.10;;;8.40;92.60;;;;;;5090033;28;20032;-71
2023/12/13 08:11:40;;;;;;;0.00;0.00;;;8.40;92.70;;;;;;5088530;28;20430;-70
2023/12/13 08:14:06;;;;;;;0.10;0.10;;;8.40;92.70;;;;;;5051789;28;20036;-70
2023/12/13 08:16:32;;;;;;;0.10;0.10;;;8.50;92.80;;;;;;5089017;28;20031;-70
2023/12/13 08:18:57;;;;;;;0.03;0.03;;;8.50;92.70;;;;;;5089139;28;20028;-71
2023/12/13 08:21:25;;;;;;;0.00;0.00;;;8.60;92.70;;;;;;5089484;28;20112;-70
2023/12/13 08:23:51;;;;;;;0.00;0.00;;;8.60;92.70;;;;;;5088506;28;20036;-70
2023/12/13 08:26:17;;;;;;;0.00;0.00;;;8.60;92.80;;;;;;5087918;28;20486;-70
2023/12/13 08:28:43;;;;;;;0.00;0.00;;;9.00;93.00;;;;;;5089004;28;20055;-70
2023/12/13 08:31:11;;;;;;;0.00;0.00;;;9.10;92.80;;;;;;5088754;28;20115;-72
2023/12/13 08:33:40;;;;;;;0.77;0.45;;;9.10;92.70;;;;;;5089274;28;20548;-71
2023/12/13 08:36:13;;;;;;;0.00;0.00;;;9.10;92.70;;;;;;5089833;28;20159;-71
2023/12/13 08:38:42;;;;;;;0.10;0.10;;;9.10;92.60;;;;;;5088214;28;20051;-70
2023/12/13 08:41:09;;;;;;;0.00;0.00;;;9.10;92.60;;;;;;5070869;28;20048;-71
2023/12/13 08:43:35;;;;;;;0.00;0.00;;;9.10;92.50;;;;;;5088356;28;20044;-71
2023/12/13 08:46:01;;;;;;;0.10;0.10;;;9.00;92.40;;;;;;5088978;28;20517;-71
2023/12/13 08:48:27;;;;;;;0.00;0.00;;;9.10;92.50;;;;;;5088994;28;20055;-68
2023/12/13 08:50:52;;;;;;;0.10;0.10;;;9.10;92.40;;;;;;5087475;28;20040;-68
2023/12/13 08:53:18;;;;;;;0.00;0.00;;;9.10;92.40;;;;;;5087098;28;20885;-71
2023/12/13 08:55:43;;;;;;;0.10;0.10;;;9.10;92.40;;;;;;5070643;28;20052;-71
2023/12/13 08:58:11;;;;;;;0.00;0.00;;;9.10;92.40;;;;;;5088288;28;20067;-71
2023/12/13 09:00:37;;;;;;;0.00;0.00;;;9.10;92.30;;;;;;5068958;28;20112;-67
2023/12/13 09:03:03;;;;;;;0.00;0.00;;;9.10;92.40;;;;;;5086189;28;20040;-73
2023/12/13 09:05:29;;;;;;;0.10;0.10;;;9.20;92.50;;;;;;5068555;28;20055;-69
2023/12/13 09:07:55;;;;;;;0.00;0.00;;;9.20;92.40;;;;;;5104231;28;20050;-69
2023/12/13 09:10:22;;;;;;;0.00;0.00;;;9.20;92.40;;;;;;5089290;28;20373;-69
2023/12/13 09:12:48;;;;;;;0.03;0.03;;;9.10;92.20;;;;;;5105239;28;20052;-69
2023/12/13 09:15:16;;;;;;;0.00;0.00;;;9.10;92.20;;;;;;5089133;28;20040;-68
2023/12/13 09:17:45;;;;;;;0.00;0.00;;;9.10;92.30;;;;;;5089049;28;20060;-69
2023/12/13 09:20:14;;;;;;;0.00;0.00;;;9.10;92.30;;;;;;5104522;28;20083;-69
2023/12/13 09:22:42;;;;;;;0.00;0.00;;;9.20;92.30;;;;;;5088893;28;20055;-69
2023/12/13 09:25:08;;;;;;;0.00;0.00;;;9.10;92.10;;;;;;5101324;28;20992;-69
2023/12/13 09:27:35;;;;;;;0.00;0.00;;;9.10;92.20;;;;;;5068562;28;20106;-69
2023/12/13 09:30:00;;;;;;;0.00;0.00;;;9.10;92.20;;;;;;5068538;28;20053;-69
2023/12/13 09:32:26;;;;;;;0.00;0.00;;;9.10;92.20;;;;;;5068761;28;20052;-69
2023/12/13 09:34:52;;;;;;;0.00;0.00;;;9.10;92.20;;;;;;5068404;28;20406;-70
2023/12/13 09:37:17;;;;;;;0.10;0.10;;;9.10;92.20;;;;;;5067395;28;20044;-70
2023/12/13 09:39:45;;;;;;;0.00;0.00;;;9.10;92.20;;;;;;5068162;28;20048;-71
2023/12/13 09:42:12;;;;;;;0.00;0.00;;;9.10;92.20;;;;;;5068605;28;20831;-70
2023/12/13 09:44:39;;;;;;;0.03;0.03;;;9.10;92.20;;;;;;5067158;28;20044;-70
2023/12/13 09:47:06;;;;;;;0.00;0.00;;;9.10;92.30;;;;;;5067037;28;20045;-70
2023/12/13 09:49:36;;;;;;;0.10;0.10;;;9.10;92.30;;;;;;5067723;28;20052;-70
2023/12/13 09:52:07;;;;;;;0.10;0.10;;;9.10;92.30;;;;;;5068352;28;20055;-70
2023/12/13 09:54:35;;;;;;;0.00;0.00;;;9.10;92.30;;;;;;5066893;28;20053;-70
2023/12/13 09:57:03;;;;;;;0.10;0.10;;;9.10;92.30;;;;;;5066814;28;20290;-70
2023/12/13 09:59:29;;;;;;;0.00;0.00;;;9.20;92.30;;;;;;5066830;28;20045;-70
2023/12/13 10:01:56;;;;;;;0.00;0.00;;;9.20;92.30;;;;;;5068311;28;20055;-70
2023/12/13 10:04:30;;;;;;;0.00;0.00;;;9.20;92.40;;;;;;5066479;28;20052;-70
2023/12/13 10:06:56;;;;;;;0.00;0.00;;;9.20;92.30;;;;;;5068211;28;20119;-70
2023/12/13 10:09:27;;;;;;;0.00;0.00;;;9.20;92.40;;;;;;5066693;28;20048;-70
2023/12/13 10:11:54;;;;;;;0.20;0.20;;;9.20;92.40;;;;;;5066413;28;20644;-70
2023/12/13 10:14:19;;;;;;;1.92;0.45;;;9.20;92.40;;;;;;5066352;28;20036;-70
2023/12/13 10:16:45;;;;;;;0.00;0.00;;;9.30;92.40;;;;;;5067555;28;20123;-70
2023/12/13 10:19:11;;;;;;;0.00;0.00;;;9.30;92.50;;;;;;5067421;28;20510;-70
2023/12/13 10:21:38;;;;;;;0.00;0.00;;;9.20;92.40;;;;;;5067513;28;20127;-70
2023/12/13 10:24:05;;;;;;;2.10;0.70;;;9.30;92.50;;;;;;5068373;28;20048;-70
2023/12/13 10:26:35;;;;;;;0.10;0.10;;;9.30;92.50;;;;;;5088039;28;20509;-70
2023/12/13 10:29:01;;;;;;;0.10;0.10;;;9.30;92.50;;;;;;5086451;28;20075;-70
2023/12/13 10:31:26;;;;;;;0.00;0.00;;;9.40;92.50;;;;;;5069673;28;20522;-70
2023/12/13 10:33:52;;;;;;;0.00;0.00;;;9.40;92.50;;;;;;5087754;28;20532;-70
2023/12/13 10:36:20;;;;;;;0.00;0.00;;;9.40;92.60;;;;;;5103510;28;20056;-70
2023/12/13 10:38:52;;;;;;;0.10;0.10;;;9.40;92.50;;;;;;5087268;28;20047;-70
2023/12/13 10:41:20;;;;;;;0.10;0.10;;;9.40;92.50;;;;;;5088031;28;20755;-70
2023/12/13 10:43:47;;;;;;;0.00;0.00;;;9.40;92.50;;;;;;5087584;28;20048;-70
2023/12/13 10:46:16;;;;;;;0.00;0.00;;;9.40;92.50;;;;;;5103794;28;20051;-70
2023/12/13 10:48:42;;;;;;;0.00;0.00;;;9.50;92.50;;;;;;5086983;28;20047;-70
2023/12/13 10:51:09;;;;;;;0.10;0.10;;;9.50;92.50;;;;;;5087566;28;20116;-70
2023/12/13 10:53:37;;;;;;;0.10;0.10;;;9.50;92.50;;;;;;5087303;28;20048;-70
2023/12/13 10:56:04;;;;;;;1.45;1.35;;;9.40;92.50;;;;;;5069296;28;20083;-70
2023/12/13 10:58:30;;;;;;;0.00;0.00;;;9.50;92.50;;;;;;5087247;28;20043;-70
2023/12/13 11:00:57;;;;;;;0.00;0.00;;;9.40;92.40;;;;;;5069273;28;20403;-70
2023/12/13 11:03:46;;;;;;;0.00;0.00;;;9.50;92.50;;;;;;5069504;28;20342;-70
2023/12/13 11:06:13;;;;;;;0.00;0.00;;;9.50;92.50;;;;;;5069313;28;20063;-70
2023/12/13 11:08:40;;;;;;;0.00;0.00;;;9.50;92.50;;;;;;5086692;28;20111;-70
2023/12/13 11:11:08;;;;;;;0.00;0.00;;;9.50;92.50;;;;;;5087286;28;20036;-70
2023/12/13 11:14:10;;;;;;;0.15;0.15;;;9.50;92.50;;;;;;5087122;28;20040;-70
2023/12/13 11:16:40;;;;;;;0.10;0.10;;;9.60;92.50;;;;;;5024365;28;20088;-70
2023/12/13 11:19:06;;;;;;;0.00;0.00;;;9.60;92.50;;;;;;5076618;28;20056;-70
2023/12/13 11:21:33;;;;;;;0.00;0.00;;;9.60;92.50;;;;;;5085374;28;20517;-70
2023/12/13 11:24:22;;;;;;;0.00;0.00;;;9.60;92.50;;;;;;5086646;28;20058;-70
2023/12/13 11:26:52;;;;;;;0.00;0.00;;;9.60;92.50;;;;;;5102390;28;20443;-70
2023/12/13 11:29:19;;;;;;;0.00;0.00;;;9.60;92.50;;;;;;5086690;28;20048;-70
2023/12/13 11:31:59;;;;;;;0.00;0.00;;;9.60;92.50;;;;;;5068741;28;20086;-70
2023/12/13 11:34:31;;;;;;;0.10;0.10;;;9.60;92.50;;;;;;5086828;28;20055;-70
2023/12/13 11:37:07;;;;;;;0.00;0.00;;;9.70;92.50;;;;;;5102776;28;20048;-70
2023/12/13 11:39:34;;;;;;;0.00;0.00;;;9.60;92.50;;;;;;5086818;28;20056;-70
2023/12/13 11:42:02;;;;;;;0.00;0.00;;;9.60;92.50;;;;;;5086811;28;20097;-69
2023/12/13 11:44:29;;;;;;;0.10;0.10;;;9.70;92.50;;;;;;5087164;28;20067;-70
2023/12/13 11:46:56;;;;;;;0.00;0.00;;;9.70;92.50;;;;;;5102384;28;20096;-70
2023/12/13 11:49:23;;;;;;;0.00;0.00;;;9.70;92.50;;;;;;5068239;28;20060;-70
2023/12/13 11:51:48;;;;;;;0.00;0.00;;;9.60;92.40;;;;;;5086710;28;20106;-70
2023/12/13 11:54:14;;;;;;;0.05;0.05;;;9.70;92.50;;;;;;5068622;28;20075;-70
2023/12/13 11:56:43;;;;;;;0.00;0.00;;;9.70;92.50;;;;;;5086321;28;20119;-70
2023/12/13 11:59:09;;;;;;;0.35;0.35;;;9.70;92.40;;;;;;5086581;28;20052;-70
2023/12/13 12:01:35;;;;;;;0.63;0.60;;;9.70;92.50;;;;;;5086974;28;20051;-70
2023/12/13 12:04:01;;;;;;;0.00;0.00;;;9.70;92.50;;;;;;5086378;28;20040;-70
2023/12/13 12:06:27;;;;;;;0.00;0.00;;;9.70;92.40;;;;;;5086805;28;20071;-70
2023/12/13 12:08:53;;;;;;;0.00;0.00;;;9.70;92.40;;;;;;5086607;28;20044;-70
2023/12/13 12:11:19;;;;;;;0.00;0.00;;;9.70;92.40;;;;;;5086279;28;20056;-70
2023/12/13 12:13:45;;;;;;;0.10;0.10;;;9.70;92.40;;;;;;5068640;28;20098;-70
2023/12/13 12:16:11;;;;;;;0.00;0.00;;;9.70;92.40;;;;;;5086747;28;20048;-70
2023/12/13 12:18:38;;;;;;;0.00;0.00;;;9.70;92.40;;;;;;5088765;28;20051;-70
2023/12/13 12:21:08;;;;;;;0.20;0.20;;;9.70;92.50;;;;;;5105854;28;20520;-70
2023/12/13 12:23:37;;;;;;;0.03;0.03;;;9.70;92.50;;;;;;5090484;28;20048;-70
2023/12/13 12:26:13;;;;;;;0.00;0.00;;;9.70;92.40;;;;;;5089908;28;20052;-70
2023/12/13 12:28:40;;;;;;;0.00;0.00;;;9.80;92.50;;;;;;5106255;28;20051;-70
2023/12/13 12:31:08;;;;;;;0.08;0.08;;;9.80;92.50;;;;;;5072601;28;20466;-70
2023/12/13 12:33:34;;;;;;;0.00;0.00;;;9.80;92.40;;;;;;5071991;28;20040;-70
2023/12/13 12:36:00;;;;;;;0.00;0.00;;;9.80;92.40;;;;;;5090158;28;20101;-70
2023/12/13 12:38:26;;;;;;;0.00;0.00;;;9.80;92.40;;;;;;5089815;28;20152;-70
2023/12/13 12:40:52;;;;;;;0.00;0.00;;;9.90;92.40;;;;;;5090033;28;20557;-70
2023/12/13 12:43:18;;;;;;;0.10;0.10;;;9.80;92.40;;;;;;5071736;28;20119;-70
2023/12/13 12:45:45;;;;;;;0.00;0.00;;;9.80;92.30;;;;;;5089416;28;20063;-70
2023/12/13 12:48:10;;;;;;;0.00;0.00;;;9.80;92.30;;;;;;5089885;28;20044;-69
2023/12/13 12:50:36;;;;;;;0.52;0.28;;;9.80;92.40;;;;;;5071749;28;20189;-70
2023/12/13 12:53:02;;;;;;;0.00;0.00;;;9.80;92.30;;;;;;5071732;28;21219;-70
2023/12/13 12:55:28;;;;;;;0.00;0.00;;;9.80;92.30;;;;;;5071305;28;20090;-70